createdAt,value
2023-03-05T00:00:06.038Z,64.60
2023-03-05T00:05:09.296Z,64.33
2023-03-05T00:10:11.647Z,64.14
2023-03-05T00:15:14.082Z,64.00
2023-03-05T00:20:16.373Z,64.09
2023-03-05T00:25:18.715Z,64.32
2023-03-05T00:30:20.854Z,64.02
2023-03-05T00:35:23.130Z,64.22
2023-03-05T00:40:25.431Z,64.33
2023-03-05T00:45:27.595Z,64.07
2023-03-05T00:50:29.774Z,65.18
2023-03-05T00:55:31.877Z,64.89
2023-03-05T01:00:34.044Z,64.75
2023-03-05T01:05:36.645Z,64.49
2023-03-05T01:10:38.971Z,64.23
2023-03-05T01:15:41.218Z,64.04
2023-03-05T01:20:43.872Z,63.71
2023-03-05T01:25:46.051Z,63.59
2023-03-05T01:30:48.933Z,63.68
2023-03-05T01:35:51.051Z,63.69
2023-03-05T01:40:53.230Z,63.76
2023-03-05T01:46:13.849Z,63.56
2023-03-05T01:51:16.921Z,63.99
2023-03-05T01:56:19.102Z,64.38
2023-03-05T02:01:21.526Z,64.08
2023-03-05T02:06:23.673Z,63.13
2023-03-05T02:11:25.995Z,63.52
2023-03-05T02:16:37.032Z,63.41
2023-03-05T02:21:47.529Z,63.01
2023-03-05T02:26:49.728Z,62.90
2023-03-05T02:31:51.895Z,63.60
2023-03-05T02:36:55.898Z,63.42
2023-03-05T02:41:58.218Z,63.22
2023-03-05T02:47:00.447Z,62.56
2023-03-05T02:52:02.661Z,63.44
2023-03-05T02:57:04.818Z,63.23
2023-03-05T03:02:07.019Z,62.78
2023-03-05T03:07:09.148Z,62.01
2023-03-05T03:12:12.313Z,62.02
2023-03-05T03:17:17.204Z,62.08
2023-03-05T03:22:19.390Z,62.40
2023-03-05T03:27:21.470Z,62.58
2023-03-05T03:32:23.749Z,62.97
2023-03-05T03:37:26.180Z,65.20
2023-03-05T03:42:28.386Z,68.41
2023-03-05T03:47:31.365Z,67.92
2023-03-05T03:52:33.497Z,65.53
2023-03-05T03:57:37.054Z,64.70
2023-03-05T04:02:39.789Z,64.34
2023-03-05T04:07:41.950Z,63.88
2023-03-05T04:12:44.152Z,63.21
2023-03-05T04:17:46.270Z,63.53
2023-03-05T04:22:48.452Z,64.21
2023-03-05T04:27:50.622Z,64.49
2023-03-05T04:32:52.701Z,66.33
2023-03-05T04:37:54.790Z,69.48
2023-03-05T04:42:57.058Z,72.14
2023-03-05T04:47:59.570Z,69.20
2023-03-05T04:53:02.313Z,68.83
2023-03-05T04:58:04.629Z,66.86
2023-03-05T05:03:06.844Z,66.01
2023-03-05T05:08:09.540Z,65.33
2023-03-05T05:13:11.631Z,65.01
2023-03-05T05:18:13.759Z,64.84
2023-03-05T05:23:16.230Z,64.40
2023-03-05T05:28:18.379Z,64.37
2023-03-05T05:33:21.801Z,64.37
2023-03-05T05:38:23.879Z,64.30
2023-03-05T05:43:26.057Z,64.20
2023-03-05T05:48:33.440Z,64.20
2023-03-05T05:53:36.262Z,63.96
2023-03-05T05:58:39.983Z,63.77
2023-03-05T06:03:42.174Z,63.69
2023-03-05T06:08:44.877Z,64.29
2023-03-05T06:13:48.533Z,64.76
2023-03-05T06:18:52.218Z,65.00
2023-03-05T06:23:54.411Z,65.37
2023-03-05T06:28:57.570Z,65.67
2023-03-05T06:34:04.198Z,65.55
2023-03-05T06:39:06.843Z,65.03
2023-03-05T06:44:09.042Z,63.98
2023-03-05T06:49:12.030Z,63.52
2023-03-05T06:54:16.408Z,63.01
2023-03-05T06:59:18.824Z,62.67
2023-03-05T07:04:20.886Z,62.72
2023-03-05T07:09:23.556Z,63.12
2023-03-05T07:14:25.667Z,62.80
2023-03-05T07:19:27.815Z,63.34
2023-03-05T07:24:30.374Z,63.18
2023-03-05T07:29:32.626Z,63.41
2023-03-05T07:34:34.837Z,63.22
2023-03-05T07:39:36.951Z,62.71
2023-03-05T07:44:39.426Z,62.11
2023-03-05T07:49:42.154Z,61.84
2023-03-05T07:54:44.409Z,61.03
2023-03-05T07:59:46.682Z,62.06
2023-03-05T08:04:48.870Z,61.92
2023-03-05T08:09:51.057Z,61.61
2023-03-05T08:14:53.266Z,61.75
2023-03-05T08:19:58.587Z,60.76
2023-03-05T08:25:01.382Z,60.04
2023-03-05T08:30:03.705Z,60.50
2023-03-05T08:35:07.120Z,60.08
2023-03-05T08:40:10.672Z,59.69
2023-03-05T08:45:13.697Z,61.02
2023-03-05T08:50:16.394Z,64.38
2023-03-05T08:55:18.530Z,65.08
2023-03-05T09:00:21.023Z,63.78
2023-03-05T09:05:23.318Z,64.26
2023-03-05T09:10:25.570Z,66.70
2023-03-05T09:15:27.726Z,67.54
2023-03-05T09:20:29.881Z,67.41
2023-03-05T09:25:32.157Z,66.30
2023-03-05T09:30:35.440Z,65.99
2023-03-05T09:35:38.563Z,65.22
2023-03-05T09:41:08.102Z,63.51
2023-03-05T09:46:10.199Z,62.82
2023-03-05T09:51:21.762Z,62.23
2023-03-05T09:56:29.717Z,62.26
2023-03-05T10:01:40.015Z,60.64
2023-03-05T10:06:57.933Z,59.81
2023-03-05T10:12:06.267Z,56.76
2023-03-05T10:17:32.349Z,56.61
2023-03-05T10:22:43.213Z,55.30
2023-03-05T10:27:51.170Z,54.38
2023-03-05T10:33:24.269Z,55.56
2023-03-05T10:38:38.378Z,57.43
2023-03-05T10:43:49.898Z,57.55
2023-03-05T10:48:59.036Z,57.46
2023-03-05T10:54:19.933Z,55.67
2023-03-05T10:59:22.125Z,55.36
2023-03-05T11:04:32.438Z,56.42
2023-03-05T11:09:34.756Z,54.95
2023-03-05T11:14:41.206Z,54.38
2023-03-05T11:19:43.475Z,54.63
2023-03-05T11:25:03.316Z,55.23
2023-03-05T11:30:22.866Z,58.72
2023-03-05T11:35:34.579Z,58.94
2023-03-05T11:40:36.792Z,57.41
2023-03-05T11:45:40.476Z,56.73
2023-03-05T11:50:46.024Z,55.66
2023-03-05T11:55:57.016Z,54.40
2023-03-05T12:01:02.156Z,53.25
2023-03-05T12:06:09.999Z,53.07
2023-03-05T12:11:24.475Z,49.67
2023-03-05T12:17:03.367Z,48.62
2023-03-05T12:22:16.045Z,48.00
2023-03-05T12:27:40.406Z,46.26
2023-03-05T12:32:46.024Z,44.80
2023-03-05T12:37:51.150Z,43.79
2023-03-05T12:43:07.216Z,43.22
2023-03-05T12:48:14.805Z,40.92
2023-03-05T12:53:20.619Z,40.51
2023-03-05T12:58:45.710Z,39.95
2023-03-05T13:03:58.691Z,40.19
2023-03-05T13:09:15.047Z,39.79
2023-03-05T13:14:57.787Z,39.19
2023-03-05T13:20:02.076Z,40.27
2023-03-05T13:25:15.230Z,40.89
2023-03-05T13:30:35.689Z,41.01
2023-03-05T13:35:46.107Z,41.59
2023-03-05T13:41:03.470Z,43.58
2023-03-05T13:46:05.888Z,44.43
2023-03-05T13:51:10.010Z,44.57
2023-03-05T13:56:18.954Z,44.58
2023-03-05T14:01:37.074Z,44.47
2023-03-05T14:07:10.063Z,44.92
2023-03-05T14:12:34.955Z,46.45
2023-03-05T14:17:42.807Z,45.68
2023-03-05T14:22:46.866Z,46.56
2023-03-05T14:27:49.224Z,48.14
2023-03-05T14:32:54.931Z,50.08
2023-03-05T14:37:59.220Z,50.78
2023-03-05T14:43:10.949Z,53.79
2023-03-05T14:48:16.419Z,56.34
2023-03-05T14:53:25.057Z,58.39
2023-03-05T14:58:32.929Z,64.64
2023-03-05T15:03:35.182Z,64.45
2023-03-05T15:08:37.366Z,64.57
2023-03-05T15:13:39.725Z,64.04
2023-03-05T15:18:42.764Z,64.52
2023-03-05T15:23:45.670Z,64.04
2023-03-05T15:28:48.422Z,64.49
2023-03-05T15:33:50.648Z,63.54
2023-03-05T15:38:52.802Z,64.30
2023-03-05T15:43:54.949Z,64.96
2023-03-05T15:48:57.150Z,63.53
2023-03-05T15:53:59.397Z,62.42
2023-03-05T15:59:02.941Z,61.70
2023-03-05T16:04:05.982Z,62.99
2023-03-05T16:09:08.313Z,63.87
2023-03-05T16:14:11.064Z,67.44
2023-03-05T16:19:16.463Z,67.30
2023-03-05T16:24:18.648Z,65.70
2023-03-05T16:29:21.672Z,63.77
2023-03-05T16:34:24.004Z,62.55
2023-03-05T16:39:26.868Z,61.92
2023-03-05T16:44:29.010Z,61.48
2023-03-05T16:49:31.720Z,61.01
2023-03-05T16:54:34.728Z,60.83
2023-03-05T16:59:38.230Z,60.89
2023-03-05T17:04:40.733Z,60.58
2023-03-05T17:09:45.567Z,60.24
2023-03-05T17:14:48.174Z,60.35
2023-03-05T17:19:50.384Z,60.84
2023-03-05T17:24:52.717Z,61.43
2023-03-05T17:29:54.997Z,61.38
2023-03-05T17:34:57.250Z,61.24
2023-03-05T17:39:59.425Z,61.52
2023-03-05T17:45:01.962Z,61.36
2023-03-05T17:50:04.725Z,61.48
2023-03-05T17:55:10.515Z,61.27
2023-03-05T18:00:19.011Z,61.75
2023-03-05T18:05:23.795Z,61.45
2023-03-05T18:10:27.390Z,61.39
2023-03-05T18:15:30.177Z,61.45
2023-03-05T18:20:34.905Z,61.73
2023-03-05T18:25:37.772Z,61.68
2023-03-05T18:30:41.240Z,61.55
2023-03-05T18:35:43.475Z,61.62
2023-03-05T18:40:47.475Z,62.20
2023-03-05T18:45:55.608Z,62.25
2023-03-05T18:50:58.599Z,62.50
2023-03-05T18:56:01.972Z,62.67
2023-03-05T19:01:05.579Z,62.52
2023-03-05T19:06:08.294Z,62.56
2023-03-05T19:11:20.566Z,62.55
2023-03-05T19:16:27.052Z,62.62
2023-03-05T19:21:32.926Z,62.90
2023-03-05T19:26:35.074Z,63.24
2023-03-05T19:31:37.984Z,63.91
2023-03-05T19:36:40.106Z,65.68
2023-03-05T19:41:42.549Z,66.35
2023-03-05T19:46:44.820Z,66.12
2023-03-05T19:51:47.835Z,65.16
2023-03-05T19:56:53.564Z,64.27
2023-03-05T20:01:57.842Z,63.93
2023-03-05T20:07:00.138Z,63.23
2023-03-05T20:12:05.123Z,63.49
2023-03-05T20:17:07.409Z,63.59
2023-03-05T20:22:09.624Z,64.06
2023-03-05T20:27:11.765Z,63.63
2023-03-05T20:32:15.489Z,64.31
2023-03-05T20:38:22.044Z,64.38
2023-03-05T20:43:26.629Z,64.04
2023-03-05T20:48:34.361Z,64.51
2023-03-05T20:53:37.075Z,64.43
2023-03-05T20:58:39.672Z,63.92
2023-03-05T21:03:42.150Z,63.77
2023-03-05T21:08:44.327Z,63.80
2023-03-05T21:13:47.080Z,63.71
2023-03-05T21:18:49.674Z,63.55
2023-03-05T21:23:52.516Z,63.55
2023-03-05T21:28:54.700Z,63.65
2023-03-05T21:33:57.194Z,63.31
2023-03-05T21:39:00.708Z,63.39
2023-03-05T21:44:04.405Z,63.15
2023-03-05T21:49:07.345Z,63.32
2023-03-05T21:54:09.797Z,63.36
2023-03-05T21:59:12.309Z,63.55
2023-03-05T22:04:15.377Z,63.73
2023-03-05T22:09:17.735Z,63.76
2023-03-05T22:14:19.983Z,63.64
2023-03-05T22:19:23.659Z,63.05
2023-03-05T22:24:25.970Z,62.98
2023-03-05T22:29:29.309Z,64.01
2023-03-05T22:34:31.409Z,64.52
2023-03-05T22:39:33.768Z,64.46
2023-03-05T22:44:36.262Z,64.21
2023-03-05T22:49:38.492Z,64.19
2023-03-05T22:54:40.652Z,64.21
2023-03-05T22:59:42.806Z,64.00
2023-03-05T23:04:50.298Z,64.61
2023-03-05T23:09:56.965Z,64.40
2023-03-05T23:15:04.370Z,64.56
2023-03-05T23:20:11.888Z,64.50
2023-03-05T23:25:15.592Z,64.42
2023-03-05T23:30:21.734Z,63.85
2023-03-05T23:35:29.656Z,64.10
2023-03-05T23:40:42.146Z,64.16
2023-03-05T23:45:48.515Z,64.78
2023-03-05T23:50:50.841Z,64.98
2023-03-05T23:55:54.167Z,64.04
